Time;durP1;ratioP1;P1;durP2;ratioP2;P2;SDS_P1;SDS_P2;PMS_P1;PMS_P2;Temp;Humidity;BMP_temperature;BMP_pressure;BME280_temperature;BME280_humidity;BME280_pressure;Samples;Min_cycle;Max_cycle;Signal;HPM_P1;HPM_P2
2023/05/28 00:00:04;;;;;;;4.10;3.80;;;;;;;20.44;54.00;94965.44;5949498;29;109128;-62
2023/05/28 00:03:12;;;;;;;4.10;3.60;;;;;;;20.43;53.50;94958.53;5939003;29;109164;-60
2023/05/28 00:06:15;;;;;;;4.20;3.90;;;;;;;20.43;53.75;94963.84;5949508;29;109226;-62
2023/05/28 00:09:18;;;;;;;4.00;3.60;;;;;;;20.42;53.45;94958.84;5949045;29;109204;-61
2023/05/28 00:12:22;;;;;;;4.40;4.00;;;;;;;20.43;53.46;94966.50;5944939;29;108902;-61
2023/05/28 00:15:25;;;;;;;4.90;4.40;;;;;;;20.42;53.65;94964.16;5944159;29;110347;-61
2023/05/28 00:18:30;;;;;;;4.82;4.32;;;;;;;20.39;53.90;94957.56;5949383;29;111397;-60
2023/05/28 00:21:34;;;;;;;4.70;4.30;;;;;;;20.41;53.99;94967.91;5951860;29;109191;-60
2023/05/28 00:24:37;;;;;;;4.43;3.80;;;;;;;20.41;54.14;94960.72;5961268;29;110052;-61
2023/05/28 00:27:42;;;;;;;4.00;3.70;;;;;;;20.43;54.23;94950.56;5971473;29;109432;-60
2023/05/28 00:30:45;;;;;;;4.50;4.20;;;;;;;20.40;54.09;94953.81;5971706;29;109045;-60
2023/05/28 00:33:48;;;;;;;4.50;4.20;;;;;;;20.40;54.27;94951.16;5971547;29;109300;-60
2023/05/28 00:36:51;;;;;;;4.68;4.22;;;;;;;20.40;54.41;94959.16;5961969;29;110113;-62
2023/05/28 00:39:54;;;;;;;4.97;4.38;;;;;;;20.39;54.06;94952.25;5971696;29;109469;-60
2023/05/28 00:42:59;;;;;;;4.67;4.30;;;;;;;20.40;54.33;94940.53;5972112;29;109373;-60
2023/05/28 00:46:04;;;;;;;6.13;4.75;;;;;;;20.39;54.49;94943.50;5970743;29;109087;-61
2023/05/28 00:49:08;;;;;;;4.90;4.50;;;;;;;20.37;54.93;94935.03;5963956;29;109613;-61
2023/05/28 00:52:11;;;;;;;4.82;4.43;;;;;;;20.38;54.47;94932.06;5970982;29;109346;-61
2023/05/28 00:55:15;;;;;;;5.30;4.80;;;;;;;20.36;54.51;94936.13;5971111;29;109444;-61
2023/05/28 00:58:21;;;;;;;5.10;4.70;;;;;;;20.38;54.59;94940.06;5961265;29;109136;-62
2023/05/28 01:01:26;;;;;;;5.70;5.30;;;;;;;20.37;54.52;94937.69;5971049;29;109131;-61
2023/05/28 01:04:32;;;;;;;5.97;5.38;;;;;;;20.41;54.85;94936.00;5971182;29;110359;-61
2023/05/28 01:07:35;;;;;;;6.38;5.88;;;;;;;20.39;54.77;94940.84;5970726;29;109126;-61
2023/05/28 01:10:39;;;;;;;6.40;5.80;;;;;;;20.37;54.59;94935.03;5961721;29;112337;-64
2023/05/28 01:13:45;;;;;;;6.53;5.95;;;;;;;20.39;55.01;94927.56;5959011;29;109112;-64
2023/05/28 01:16:49;;;;;;;6.70;6.15;;;;;;;20.39;55.00;94924.91;5948632;29;108910;-64
2023/05/28 01:19:53;;;;;;;6.47;5.97;;;;;;;20.39;54.79;94917.72;5947562;29;109190;-64
2023/05/28 01:23:01;;;;;;;6.20;5.70;;;;;;;20.37;55.10;94914.56;5938216;29;109554;-64
2023/05/28 01:26:07;;;;;;;6.30;5.80;;;;;;;20.40;54.88;94916.63;5948189;29;109186;-65
2023/05/28 01:29:16;;;;;;;6.25;5.75;;;;;;;20.38;55.05;94915.34;5947803;29;109839;-65
2023/05/28 01:32:19;;;;;;;6.78;6.18;;;;;;;20.39;54.72;94920.38;5939280;29;110804;-64
2023/05/28 01:35:23;;;;;;;6.73;6.13;;;;;;;20.39;54.99;94925.69;5947407;29;109729;-64
2023/05/28 01:38:27;;;;;;;6.40;5.90;;;;;;;20.37;54.97;94921.75;5948150;29;110120;-64
2023/05/28 01:41:32;;;;;;;6.00;5.50;;;;;;;20.32;55.01;94920.75;5947560;29;109165;-65
2023/05/28 01:44:36;;;;;;;5.63;5.20;;;;;;;20.32;54.80;94922.63;5938302;29;109972;-65
2023/05/28 01:47:41;;;;;;;5.80;5.30;;;;;;;20.33;54.72;94921.53;5947556;29;109185;-64
2023/05/28 01:50:44;;;;;;;5.50;5.10;;;;;;;20.34;54.52;94919.69;5947779;29;108873;-64
2023/05/28 01:53:47;;;;;;;5.20;4.80;;;;;;;20.32;54.56;94910.13;5955489;29;109265;-65
2023/05/28 01:56:52;;;;;;;5.20;4.80;;;;;;;20.33;55.02;94905.59;5960034;29;109350;-65
2023/05/28 01:59:55;;;;;;;6.03;5.43;;;;;;;20.35;54.82;94907.97;5970186;29;109159;-66
2023/05/28 02:02:58;;;;;;;5.90;5.33;;;;;;;20.32;54.63;94901.34;5970314;29;109844;-65
2023/05/28 02:06:01;;;;;;;5.28;4.90;;;;;;;20.31;54.75;94908.53;5965184;29;109422;-66
2023/05/28 02:09:05;;;;;;;5.70;5.20;;;;;;;20.32;54.72;94907.47;5965343;29;109150;-65
2023/05/28 02:12:09;;;;;;;5.35;4.95;;;;;;;20.28;54.88;94903.81;5969851;29;109084;-66
2023/05/28 02:15:13;;;;;;;4.90;4.40;;;;;;;20.26;54.81;94916.63;5970205;29;110132;-64
2023/05/28 02:18:16;;;;;;;5.67;5.10;;;;;;;20.29;54.43;94905.41;5958594;29;109580;-64
2023/05/28 02:21:20;;;;;;;4.90;4.50;;;;;;;20.30;54.84;94912.28;5969158;29;109128;-61
2023/05/28 02:24:23;;;;;;;5.10;4.60;;;;;;;20.29;54.73;94915.25;5969487;29;109043;-61
2023/05/28 02:27:27;;;;;;;5.30;4.80;;;;;;;20.28;54.69;94913.66;5969898;29;109344;-60
2023/05/28 02:30:30;;;;;;;4.75;4.35;;;;;;;20.24;54.83;94912.66;5959160;29;111781;-60
2023/05/28 02:33:34;;;;;;;5.07;4.67;;;;;;;20.27;54.74;94912.88;5969470;29;109456;-61
2023/05/28 02:36:37;;;;;;;5.17;4.77;;;;;;;20.26;54.91;94921.94;5969800;29;110325;-61
2023/05/28 02:39:41;;;;;;;5.30;4.90;;;;;;;20.24;54.48;94916.13;5968820;29;109163;-62
2023/05/28 02:42:45;;;;;;;5.40;5.00;;;;;;;20.27;54.49;94915.53;5962062;29;110616;-61
2023/05/28 02:45:49;;;;;;;5.20;4.80;;;;;;;20.24;54.50;94916.13;5970125;29;110314;-61
2023/05/28 02:48:53;;;;;;;5.30;4.90;;;;;;;20.23;54.68;94913.75;5969446;29;110122;-60
2023/05/28 02:51:56;;;;;;;5.53;5.13;;;;;;;20.27;54.24;94925.38;5959264;29;109396;-62
2023/05/28 02:54:59;;;;;;;5.57;5.07;;;;;;;20.22;54.42;94925.47;5968726;29;109118;-62
2023/05/28 02:58:05;;;;;;;4.90;4.50;;;;;;;20.22;54.68;94925.47;5969240;29;109001;-61
2023/05/28 03:01:08;;;;;;;4.63;4.22;;;;;;;20.22;54.88;94922.81;5969474;29;110365;-61
2023/05/28 03:04:11;;;;;;;4.80;4.40;;;;;;;20.23;54.82;94917.19;5959299;29;109131;-61
2023/05/28 03:07:15;;;;;;;4.90;4.50;;;;;;;20.23;54.76;94916.41;5969584;29;111595;-61
2023/05/28 03:10:18;;;;;;;5.20;4.70;;;;;;;20.23;55.04;94922.50;5968708;29;109231;-62
2023/05/28 03:13:23;;;;;;;5.30;4.90;;;;;;;20.21;54.82;94919.38;5968938;29;109124;-61
2023/05/28 03:16:26;;;;;;;4.40;4.10;;;;;;;20.19;54.70;94920.75;5958636;29;109833;-60
2023/05/28 03:19:29;;;;;;;4.70;4.30;;;;;;;20.19;54.92;94918.88;5968962;29;110058;-61
2023/05/28 03:22:33;;;;;;;4.80;4.40;;;;;;;20.17;55.18;94920.25;5968444;29;109409;-62
2023/05/28 03:25:36;;;;;;;5.00;4.60;;;;;;;20.18;55.19;94935.91;5964532;29;110539;-61
2023/05/28 03:28:40;;;;;;;4.60;4.20;;;;;;;20.18;55.00;94927.16;5964223;29;109324;-60
2023/05/28 03:31:45;;;;;;;4.70;4.30;;;;;;;20.21;55.06;94924.69;5969227;29;109417;-68
2023/05/28 03:34:49;;;;;;;5.20;4.80;;;;;;;20.22;54.84;94928.13;5968902;29;110136;-67
2023/05/28 03:37:52;;;;;;;4.70;4.40;;;;;;;20.24;54.78;94933.94;5958112;29;109400;-66
2023/05/28 03:40:55;;;;;;;5.30;4.80;;;;;;;20.21;55.04;94927.34;5968640;29;109118;-68
2023/05/28 03:44:00;;;;;;;6.13;5.63;;;;;;;20.25;54.70;94930.22;5968741;29;109531;-68
2023/05/28 03:47:03;;;;;;;6.50;6.00;;;;;;;20.26;54.58;94932.56;5968908;29;109290;-68
2023/05/28 03:50:07;;;;;;;9.93;9.13;;;;;;;20.28;54.83;94933.06;5958837;29;111645;-69
2023/05/28 03:53:10;;;;;;;12.00;11.10;;;;;;;20.28;54.92;94934.94;5968430;29;109232;-68
2023/05/28 03:56:14;;;;;;;8.15;7.45;;;;;;;20.25;54.98;94931.00;5968349;29;109053;-67
2023/05/28 03:59:18;;;;;;;7.22;6.63;;;;;;;20.23;55.00;94927.03;5966345;29;111897;-65
2023/05/28 04:02:21;;;;;;;8.43;7.65;;;;;;;20.25;54.62;94931.00;5962874;29;110457;-69
2023/05/28 04:05:25;;;;;;;10.82;9.90;;;;;;;20.24;54.73;94932.09;5968159;29;109198;-67
2023/05/28 04:08:28;;;;;;;12.80;11.70;;;;;;;20.26;54.85;94929.13;5968473;29;110095;-68
2023/05/28 04:11:34;;;;;;;11.20;10.30;;;;;;;20.22;54.96;94934.22;5958490;29;109227;-67
2023/05/28 04:14:40;;;;;;;9.07;8.38;;;;;;;20.26;54.51;94931.78;5967607;29;109135;-67
2023/05/28 04:17:43;;;;;;;8.88;8.07;;;;;;;20.24;54.90;94932.09;5968848;29;110181;-66
2023/05/28 04:20:47;;;;;;;10.30;9.40;;;;;;;20.24;54.85;94933.94;5967632;29;109160;-68
2023/05/28 04:23:51;;;;;;;9.90;9.00;;;;;;;20.23;54.75;94927.81;5957890;29;110478;-67
2023/05/28 04:26:54;;;;;;;9.38;8.60;;;;;;;20.23;55.12;94937.66;5967795;29;109664;-67
2023/05/28 04:29:58;;;;;;;9.93;9.13;;;;;;;20.26;55.20;94942.41;5967745;29;109204;-67
2023/05/28 04:33:02;;;;;;;11.98;10.98;;;;;;;20.25;55.31;94936.31;5967797;29;109322;-67
2023/05/28 04:36:07;;;;;;;10.25;9.45;;;;;;;20.25;55.21;94941.63;5957238;29;109100;-66
2023/05/28 04:39:11;;;;;;;10.80;9.90;;;;;;;20.22;55.20;94936.88;5967750;29;109335;-63
2023/05/28 04:42:16;;;;;;;10.07;9.18;;;;;;;20.23;55.20;94935.00;5969276;29;109431;-63
2023/05/28 04:45:21;;;;;;;8.73;8.02;;;;;;;20.20;55.27;94944.38;5965834;29;109314;-63
2023/05/28 04:48:25;;;;;;;8.60;7.90;;;;;;;20.22;55.10;94952.03;5969932;29;110806;-61
2023/05/28 04:51:28;;;;;;;8.27;7.60;;;;;;;20.21;55.50;94945.16;5971431;29;109430;-62
2023/05/28 04:54:31;;;;;;;8.03;7.43;;;;;;;20.20;55.44;94951.53;5971974;29;109091;-63
2023/05/28 04:57:34;;;;;;;8.10;7.50;;;;;;;20.22;55.77;94947.50;5960749;29;109257;-61
2023/05/28 05:00:39;;;;;;;8.45;7.70;;;;;;;20.23;55.71;94948.28;5971426;29;109156;-62
2023/05/28 05:03:42;;;;;;;8.00;7.30;;;;;;;20.24;55.19;94940.06;5971298;29;110002;-63
2023/05/28 05:06:45;;;;;;;8.00;7.32;;;;;;;20.24;55.77;94949.88;5971688;29;109005;-62
2023/05/28 05:09:48;;;;;;;7.30;6.70;;;;;;;20.22;55.84;94942.19;5962124;29;109891;-62
2023/05/28 05:12:51;;;;;;;8.13;7.43;;;;;;;20.27;55.67;94944.78;5971049;29;109091;-61
2023/05/28 05:15:56;;;;;;;7.90;7.30;;;;;;;20.27;55.68;94943.97;5971078;29;108884;-61
2023/05/28 05:18:59;;;;;;;7.70;7.10;;;;;;;20.28;55.76;94941.03;5966616;29;109090;-63
2023/05/28 05:22:03;;;;;;;7.97;7.38;;;;;;;20.32;56.03;94946.53;5964707;29;109357;-62
2023/05/28 05:25:08;;;;;;;9.40;8.50;;;;;;;20.33;56.09;94950.75;5970837;29;110385;-62
2023/05/28 05:28:11;;;;;;;9.30;8.50;;;;;;;20.35;55.77;94939.88;5970420;29;109548;-62
2023/05/28 05:31:16;;;;;;;7.47;6.87;;;;;;;20.36;55.88;94936.13;5960990;29;110071;-61
2023/05/28 05:34:19;;;;;;;7.80;7.10;;;;;;;20.36;55.64;94934.25;5971299;29;108977;-64
2023/05/28 05:37:23;;;;;;;8.10;7.40;;;;;;;20.32;55.66;94936.69;5970959;29;109443;-63
2023/05/28 05:40:26;;;;;;;8.10;7.40;;;;;;;20.34;55.85;94935.63;5970595;29;109828;-63
2023/05/28 05:43:29;;;;;;;8.25;7.55;;;;;;;20.34;55.97;94940.94;5960091;29;109582;-61
2023/05/28 05:46:33;;;;;;;7.93;7.13;;;;;;;20.32;56.11;94942.00;5970305;29;109381;-62
2023/05/28 05:49:37;;;;;;;8.30;7.60;;;;;;;20.33;56.16;94937.47;5970553;29;109607;-62
2023/05/28 05:52:40;;;;;;;8.38;7.57;;;;;;;20.33;56.35;94937.47;5969873;29;109437;-67
2023/05/28 05:55:44;;;;;;;8.30;7.50;;;;;;;20.30;56.05;94941.50;5959196;29;109272;-68
2023/05/28 05:58:47;;;;;;;7.20;6.60;;;;;;;20.32;56.13;94946.53;5970175;29;110217;-68
2023/05/28 06:01:51;;;;;;;7.70;6.80;;;;;;;20.33;55.76;94942.78;5970339;29;109867;-69
2023/05/28 06:04:54;;;;;;;7.40;6.70;;;;;;;20.34;55.79;94936.41;5964127;29;109261;-67
2023/05/28 06:07:58;;;;;;;6.77;6.17;;;;;;;20.34;55.85;94944.41;5968135;29;108997;-67
2023/05/28 06:11:02;;;;;;;7.60;6.90;;;;;;;20.35;55.61;94939.88;5970274;29;110432;-68
2023/05/28 06:14:06;;;;;;;7.70;7.00;;;;;;;20.36;55.96;94944.09;5969886;29;109164;-68
2023/05/28 06:17:10;;;;;;;7.90;7.20;;;;;;;20.32;56.44;94942.00;5960528;29;110207;-67
2023/05/28 06:20:14;;;;;;;8.00;7.30;;;;;;;20.32;56.27;94952.63;5969654;29;109291;-67
2023/05/28 06:23:18;;;;;;;7.90;7.20;;;;;;;20.36;55.90;94952.06;5969645;29;109355;-67
2023/05/28 06:26:22;;;;;;;8.45;7.75;;;;;;;20.37;56.01;94950.97;5969796;29;109365;-68
2023/05/28 06:29:25;;;;;;;8.23;7.45;;;;;;;20.40;56.37;94959.16;5959213;29;109393;-67
2023/05/28 06:32:29;;;;;;;7.95;7.15;;;;;;;20.39;56.05;94951.47;5969822;29;109189;-68
2023/05/28 06:35:33;;;;;;;7.63;7.03;;;;;;;20.40;56.31;94956.47;5969760;29;109134;-67
2023/05/28 06:38:36;;;;;;;7.60;7.00;;;;;;;20.40;56.19;94961.00;5966206;29;109354;-68
2023/05/28 06:41:39;;;;;;;8.07;7.38;;;;;;;20.40;56.10;94956.47;5964649;29;109106;-68
2023/05/28 06:44:42;;;;;;;7.50;6.90;;;;;;;20.38;56.39;94960.53;5969762;29;110191;-68
2023/05/28 06:47:47;;;;;;;7.53;6.93;;;;;;;20.38;56.03;94960.53;5969834;29;108964;-68
2023/05/28 06:50:50;;;;;;;8.70;8.00;;;;;;;20.42;55.99;94964.16;5960475;29;109149;-67
2023/05/28 06:53:53;;;;;;;9.30;8.50;;;;;;;20.40;56.41;94969.00;5969202;29;109326;-67
2023/05/28 06:56:56;;;;;;;8.30;7.60;;;;;;;20.42;56.28;94969.47;5969407;29;109540;-67
2023/05/28 06:59:59;;;;;;;9.32;7.93;;;;;;;20.41;56.18;94971.34;5968948;29;109651;-68
2023/05/28 07:03:04;;;;;;;8.50;7.80;;;;;;;20.39;56.50;94970.06;5960046;29;110814;-68
2023/05/28 07:06:07;;;;;;;7.60;6.90;;;;;;;20.40;56.76;94969.00;5968859;29;109383;-68
2023/05/28 07:09:10;;;;;;;7.60;6.90;;;;;;;20.41;56.34;94966.03;5968968;29;109478;-68
2023/05/28 07:12:13;;;;;;;8.30;7.60;;;;;;;20.43;56.45;94969.19;5969275;29;110192;-67
2023/05/28 07:15:17;;;;;;;8.30;7.60;;;;;;;20.41;56.33;94970.56;5958691;29;109139;-66
2023/05/28 07:18:22;;;;;;;6.97;6.43;;;;;;;20.44;56.72;94960.13;5969319;29;109149;-67
2023/05/28 07:21:25;;;;;;;6.93;6.40;;;;;;;20.52;56.46;94961.31;5968821;29;109163;-67
2023/05/28 07:24:28;;;;;;;7.20;6.50;;;;;;;20.71;55.69;94958.53;5963339;29;109589;-69
2023/05/28 07:27:31;;;;;;;11.43;6.90;;;;;;;20.98;56.17;94955.78;5967497;29;109365;-71
2023/05/28 07:30:35;;;;;;;7.78;6.28;;;;;;;21.10;55.90;94963.25;5970219;29;109466;-71
2023/05/28 07:33:40;;;;;;;9.52;6.63;;;;;;;21.11;56.03;94956.84;5970441;29;109225;-68
2023/05/28 07:36:43;;;;;;;10.30;8.50;;;;;;;20.93;55.58;94947.91;5961544;29;109556;-69
2023/05/28 07:39:46;;;;;;;10.17;9.10;;;;;;;20.80;56.35;94954.84;5970563;29;110590;-66
2023/05/28 07:42:49;;;;;;;12.70;11.40;;;;;;;20.77;56.29;94952.00;5969037;29;109366;-68
2023/05/28 07:45:52;;;;;;;13.70;12.30;;;;;;;20.76;56.41;94945.09;5968886;29;109104;-67
2023/05/28 07:48:57;;;;;;;11.00;9.90;;;;;;;20.78;55.91;94941.06;5959174;29;109251;-66
2023/05/28 07:52:01;;;;;;;12.10;10.90;;;;;;;20.81;56.40;94943.13;5969089;29;108884;-67
2023/05/28 07:55:04;;;;;;;9.95;9.05;;;;;;;20.85;55.96;94936.13;5968239;29;109099;-68
2023/05/28 07:58:07;;;;;;;8.43;7.63;;;;;;;20.87;56.01;94928.63;5963901;29;109066;-67
2023/05/28 08:01:10;;;;;;;8.63;7.93;;;;;;;20.88;55.71;94934.75;5962763;29;110169;-67
2023/05/28 08:04:15;;;;;;;8.13;7.40;;;;;;;20.88;56.10;94932.09;5968565;29;109480;-67
2023/05/28 08:07:18;;;;;;;7.50;6.80;;;;;;;20.86;55.76;94943.03;5968552;29;109472;-67
2023/05/28 08:10:21;;;;;;;7.22;6.63;;;;;;;20.84;55.77;94945.19;5958919;29;109692;-68
2023/05/28 08:13:25;;;;;;;7.05;6.38;;;;;;;20.84;55.52;94942.53;5967791;29;110103;-62
2023/05/28 08:16:28;;;;;;;7.40;6.70;;;;;;;20.83;55.67;94940.94;5968017;29;109146;-61
2023/05/28 08:19:32;;;;;;;7.07;6.38;;;;;;;20.84;55.86;94931.13;5971934;29;110135;-60
2023/05/28 08:22:36;;;;;;;7.40;6.70;;;;;;;20.88;55.62;94927.53;5961393;29;108848;-61
2023/05/28 08:25:39;;;;;;;7.57;6.87;;;;;;;21.00;55.58;94931.53;5971778;29;109420;-62
2023/05/28 08:28:42;;;;;;;7.10;6.50;;;;;;;21.09;55.10;94937.75;5971964;29;109340;-62
2023/05/28 08:31:45;;;;;;;7.22;6.63;;;;;;;21.10;55.39;94939.31;5971728;29;109077;-61
2023/05/28 08:34:50;;;;;;;8.32;7.63;;;;;;;21.10;55.83;94952.63;5961380;29;109099;-61
2023/05/28 08:37:53;;;;;;;8.48;7.78;;;;;;;21.08;56.22;94946.81;5971568;29;109126;-61
2023/05/28 08:40:57;;;;;;;8.43;7.72;;;;;;;21.05;55.99;94945.56;5971344;29;109979;-63
2023/05/28 08:44:01;;;;;;;10.10;9.20;;;;;;;21.06;56.03;94941.00;5965197;29;109127;-64
2023/05/28 08:47:05;;;;;;;10.10;9.30;;;;;;;21.03;56.07;94942.38;5967988;29;109226;-62
2023/05/28 08:50:12;;;;;;;10.60;9.60;;;;;;;21.04;55.74;94935.97;5971261;29;109141;-61
2023/05/28 08:53:20;;;;;;;13.02;11.82;;;;;;;21.10;55.37;94944.63;5971578;29;109100;-60
2023/05/28 08:56:25;;;;;;;12.05;10.95;;;;;;;21.12;55.46;94945.13;5960728;29;110314;-61
2023/05/28 08:59:28;;;;;;;12.30;11.20;;;;;;;21.13;55.27;94938.72;5971574;29;111922;-61
2023/05/28 09:02:31;;;;;;;11.33;10.33;;;;;;;21.16;54.99;94938.88;5970947;29;109087;-62
2023/05/28 09:05:38;;;;;;;11.65;10.55;;;;;;;21.23;54.93;94927.06;5971266;29;109147;-61
2023/05/28 09:08:44;;;;;;;12.03;10.93;;;;;;;21.27;54.80;94928.81;5961281;29;109070;-61
2023/05/28 09:11:48;;;;;;;11.87;10.87;;;;;;;21.32;54.80;94928.66;5971473;29;108801;-62
2023/05/28 09:14:53;;;;;;;11.40;10.40;;;;;;;21.35;55.02;94929.97;5971269;29;109100;-62
2023/05/28 09:17:58;;;;;;;11.30;10.40;;;;;;;21.32;55.44;94920.69;5966135;29;108976;-61
2023/05/28 09:21:08;;;;;;;11.98;10.98;;;;;;;21.30;54.86;94922.88;5965487;29;109404;-68
2023/05/28 09:24:14;;;;;;;11.40;10.30;;;;;;;21.25;55.23;94938.97;5971055;29;109414;-69
2023/05/28 09:27:19;;;;;;;9.60;8.70;;;;;;;21.23;54.61;94927.84;5970522;29;109305;-69
2023/05/28 09:30:23;;;;;;;9.43;8.63;;;;;;;21.19;55.07;94932.19;5960453;29;109521;-68
2023/05/28 09:33:27;;;;;;;9.27;8.48;;;;;;;21.18;54.56;94925.31;5970615;29;109177;-69
2023/05/28 09:36:32;;;;;;;8.45;7.75;;;;;;;21.16;54.18;94922.13;5970515;29;109016;-69
2023/05/28 09:39:35;;;;;;;7.50;6.70;;;;;;;21.13;54.32;94928.06;5970825;29;109172;-68
2023/05/28 09:42:42;;;;;;;6.60;6.00;;;;;;;21.11;54.36;94939.00;5959910;29;109436;-69
2023/05/28 09:45:45;;;;;;;6.40;5.90;;;;;;;21.10;54.22;94939.31;5970665;29;109383;-69
2023/05/28 09:48:49;;;;;;;7.00;6.40;;;;;;;21.10;54.23;94936.66;5970907;29;109146;-69
2023/05/28 09:51:57;;;;;;;7.20;6.60;;;;;;;21.09;53.79;94937.75;5965797;29;109084;-67
2023/05/28 09:55:06;;;;;;;7.15;6.55;;;;;;;21.08;54.06;94941.50;5965389;29;109220;-69
2023/05/28 09:58:10;;;;;;;6.80;6.20;;;;;;;21.08;53.80;94936.19;5970432;29;109428;-70
2023/05/28 10:01:16;;;;;;;7.53;6.93;;;;;;;21.06;53.66;94935.69;5970323;29;109457;-68
2023/05/28 10:04:30;;;;;;;6.60;6.00;;;;;;;21.03;53.73;94944.25;5959573;29;110180;-68
2023/05/28 10:07:36;;;;;;;5.78;5.18;;;;;;;21.01;53.69;94941.13;5970449;29;109331;-70
2023/05/28 10:10:42;;;;;;;5.63;5.13;;;;;;;20.99;53.64;94937.94;5970313;29;109337;-68
2023/05/28 10:13:45;;;;;;;6.80;6.20;;;;;;;21.00;53.94;94936.84;5969936;29;109260;-69
2023/05/28 10:16:50;;;;;;;7.75;7.05;;;;;;;21.00;54.15;94940.28;5960161;29;109065;-69
2023/05/28 10:19:53;;;;;;;7.32;6.63;;;;;;;21.01;53.86;94936.56;5969397;29;109176;-68
2023/05/28 10:22:58;;;;;;;8.38;7.57;;;;;;;21.01;53.59;94941.91;5969885;29;109085;-68
2023/05/28 10:26:02;;;;;;;7.40;6.80;;;;;;;21.01;54.01;94939.25;5965334;29;110269;-68
2023/05/28 10:29:07;;;;;;;9.02;8.25;;;;;;;21.00;53.81;94934.19;5963803;29;109733;-69
2023/05/28 10:32:14;;;;;;;7.53;6.93;;;;;;;21.01;53.46;94935.78;5970391;29;110175;-61
2023/05/28 10:35:17;;;;;;;7.78;7.07;;;;;;;21.01;53.87;94935.78;5969955;29;110110;-61
2023/05/28 10:38:22;;;;;;;8.98;8.27;;;;;;;20.99;53.77;94932.63;5959309;29;109129;-61
2023/05/28 10:41:25;;;;;;;8.15;7.45;;;;;;;20.98;53.96;94934.50;5968979;29;109181;-61
2023/05/28 10:45:07;;;;;;;9.00;8.30;;;;;;;20.98;53.72;94931.84;5969801;29;110420;-60
2023/05/28 10:48:16;;;;;;;14.57;13.45;;;;;;;21.01;53.30;94935.78;5969749;29;109382;-61
2023/05/28 10:51:19;;;;;;;12.33;11.30;;;;;;;21.02;53.71;94921.41;5961318;29;109575;-62
2023/05/28 10:54:25;;;;;;;10.35;9.55;;;;;;;21.05;53.54;94926.94;5969353;29;109882;-62
2023/05/28 10:57:40;;;;;;;10.65;9.80;;;;;;;21.05;53.50;94921.59;5971171;29;109409;-61
2023/05/28 11:00:44;;;;;;;10.55;9.10;;;;;;;21.14;54.01;94921.66;5972700;29;109907;-65
2023/05/28 11:03:52;;;;;;;18.67;10.48;;;;;;;21.30;55.33;94911.44;5969360;29;109153;-68
2023/05/28 11:06:57;;;;;;;34.53;12.70;;;;;;;21.37;56.37;94904.59;5969508;29;109166;-68
2023/05/28 11:10:03;;;;;;;59.95;16.60;;;;;;;21.50;56.08;94905.59;5991614;29;109028;-65
2023/05/28 11:13:06;;;;;;;103.50;22.08;;;;;;;21.49;57.21;94907.47;5939977;29;110127;-64
2023/05/28 11:16:10;;;;;;;80.47;18.73;;;;;;;21.53;57.52;94910.34;5949520;29;112712;-65
2023/05/28 11:19:14;;;;;;;69.43;17.95;;;;;;;21.56;57.20;94911.59;5968981;29;109424;-60
2023/05/28 11:22:18;;;;;;;72.63;15.90;;;;;;;21.46;56.45;94910.75;5968366;29;108749;-61
2023/05/28 11:25:25;;;;;;;45.72;13.38;;;;;;;21.33;54.74;94911.59;5951841;29;109147;-60
2023/05/28 11:28:28;;;;;;;32.30;11.20;;;;;;;21.25;54.35;94904.38;5968986;29;109220;-61
2023/05/28 11:31:38;;;;;;;28.38;11.70;;;;;;;21.22;54.87;94907.63;5968786;29;110188;-60
2023/05/28 11:34:41;;;;;;;24.63;12.32;;;;;;;21.20;55.08;94901.84;5958138;29;110185;-60
2023/05/28 11:37:45;;;;;;;67.05;18.08;;;;;;;21.37;58.82;94903.81;5968709;29;109153;-69
2023/05/28 11:40:50;;;;;;;92.65;21.90;;;;;;;21.57;60.10;94897.19;5967727;29;109098;-69
2023/05/28 11:43:54;;;;;;;116.10;25.07;;;;;;;21.58;60.09;94901.44;5969606;29;110307;-68
2023/05/28 11:46:57;;;;;;;131.30;25.40;;;;;;;21.64;60.75;94897.53;5978287;29;109136;-70
2023/05/28 11:50:06;;;;;;;126.97;29.03;;;;;;;21.68;61.31;94904.63;5948095;29;109281;-69
2023/05/28 11:53:09;;;;;;;143.87;27.27;;;;;;;21.70;62.91;94901.66;5972891;29;109118;-68
2023/05/28 11:56:14;;;;;;;168.47;31.00;;;;;;;21.75;64.16;94904.19;5950950;29;109361;-67
2023/05/28 11:59:18;;;;;;;229.97;35.13;;;;;;;21.73;64.58;94907.16;5941741;29;109196;-69
2023/05/28 12:02:24;;;;;;;678.37;60.77;;;;;;;21.73;66.42;94903.69;5955911;29;108933;-68
2023/05/28 12:05:27;;;;;;;1189.30;98.63;;;;;;;21.72;66.78;94904.78;5973996;29;109124;-70
2023/05/28 12:08:30;;;;;;;1162.63;97.57;;;;;;;21.72;68.50;94891.47;5963760;29;109098;-70
2023/05/28 12:11:35;;;;;;;889.53;78.57;;;;;;;21.72;69.02;94891.47;5963456;29;108941;-69
2023/05/28 12:14:38;;;;;;;546.37;53.70;;;;;;;21.69;69.48;94892.88;5994331;29;109019;-68
2023/05/28 12:17:43;;;;;;;441.47;50.40;;;;;;;21.66;68.60;94888.16;5997146;29;111934;-68
2023/05/28 12:20:49;;;;;;;454.03;46.83;;;;;;;21.70;68.00;94894.44;5963578;29;109838;-68
2023/05/28 12:23:55;;;;;;;352.40;42.47;;;;;;;21.72;69.62;94894.16;5951877;29;109448;-68
2023/05/28 12:27:00;;;;;;;342.47;42.27;;;;;;;21.72;68.77;94891.47;5969293;29;108918;-70
2023/05/28 12:30:03;;;;;;;292.97;37.47;;;;;;;21.74;68.28;94887.41;5984547;29;109205;-66
2023/05/28 12:33:06;;;;;;;249.07;37.27;;;;;;;21.83;67.40;94894.66;5966375;29;109284;-70
2023/05/28 12:36:10;;;;;;;269.20;37.20;;;;;;;21.81;66.58;94886.97;5985989;29;109116;-70
2023/05/28 12:39:13;;;;;;;253.87;37.23;;;;;;;21.79;65.36;94903.25;5972338;29;108959;-68
2023/05/28 12:42:17;;;;;;;243.97;34.90;;;;;;;21.80;64.66;94904.81;5992263;29;108895;-71
2023/05/28 12:45:21;;;;;;;229.87;36.90;;;;;;;21.81;64.71;94903.72;5984151;29;109140;-74
2023/05/28 12:48:24;;;;;;;190.10;33.27;;;;;;;21.79;64.90;94891.81;5968058;29;109387;-73
2023/05/28 12:51:27;;;;;;;201.67;34.97;;;;;;;21.81;64.35;94902.94;5972541;29;109717;-74
2023/05/28 12:54:31;;;;;;;182.63;34.07;;;;;;;21.79;64.66;94891.81;5968417;29;109436;-66
2023/05/28 12:57:35;;;;;;;156.40;29.80;;;;;;;21.84;63.74;94891.69;5972849;29;111458;-65
2023/05/28 13:00:40;;;;;;;123.30;31.80;;;;;;;21.88;62.37;94889.22;5972304;29;109554;-67
2023/05/28 13:03:43;;;;;;;119.37;31.67;;;;;;;21.84;62.21;94883.72;5975504;29;109361;-65
2023/05/28 13:06:47;;;;;;;92.93;26.30;;;;;;;21.84;61.49;94875.72;5966300;29;110216;-65
2023/05/28 13:09:50;;;;;;;96.23;27.97;;;;;;;21.86;61.55;94865.56;5973794;29;109106;-65
2023/05/28 13:12:55;;;;;;;102.47;26.40;;;;;;;21.85;62.36;94864.00;5972226;29;109393;-66
2023/05/28 13:15:58;;;;;;;87.33;25.60;;;;;;;21.84;64.34;94865.06;5972379;29;109160;-65
2023/05/28 13:19:02;;;;;;;87.73;23.87;;;;;;;21.87;64.36;94861.81;5965422;29;110015;-66
2023/05/28 13:22:06;;;;;;;103.47;25.50;;;;;;;21.89;61.70;94854.28;5982063;29;109363;-66
2023/05/28 13:25:10;;;;;;;86.13;24.47;;;;;;;21.86;62.94;94846.91;5978486;29;109135;-65
2023/05/28 13:28:14;;;;;;;30.67;14.33;;;;;;;21.56;57.29;94837.06;5966920;29;109186;-66
2023/05/28 13:31:18;;;;;;;57.77;19.70;;;;;;;21.61;60.81;94832.38;5963354;29;109087;-64
2023/05/28 13:34:21;;;;;;;61.40;21.77;;;;;;;21.75;60.56;94827.72;5971062;29;109074;-64
2023/05/28 13:37:26;;;;;;;68.53;18.63;;;;;;;21.82;60.25;94821.97;5971602;29;108895;-66
2023/05/28 13:40:29;;;;;;;67.70;20.97;;;;;;;21.87;60.34;94829.84;5961913;29;109214;-68
2023/05/28 13:43:37;;;;;;;64.00;17.40;;;;;;;21.87;60.09;94813.06;5971408;29;109273;-66
2023/05/28 13:46:40;;;;;;;63.00;19.93;;;;;;;21.88;60.45;94822.63;5977425;29;108796;-64
2023/05/28 13:49:43;;;;;;;57.33;18.00;;;;;;;21.90;61.20;94815.91;5976274;29;109679;-65
2023/05/28 13:52:46;;;;;;;75.37;17.70;;;;;;;21.94;61.24;94813.38;5967060;29;109092;-65
2023/05/28 13:55:50;;;;;;;57.97;19.53;;;;;;;21.93;60.46;94799.28;5970043;29;109317;-65
2023/05/28 13:58:54;;;;;;;49.60;15.73;;;;;;;21.82;59.01;94800.66;5985452;29;109072;-71
2023/05/28 14:01:57;;;;;;;37.10;27.40;;;;;;;21.64;56.41;94804.34;5972142;29;109959;-73
2023/05/28 14:05:01;;;;;;;45.90;15.47;;;;;;;21.50;56.51;94796.44;5966349;29;109137;-67
2023/05/28 14:08:04;;;;;;;103.00;18.70;;;;;;;21.53;56.16;94798.53;5973085;29;109276;-67